Time;durP1;ratioP1;P1;durP2;ratioP2;P2;SDS_P1;SDS_P2;PMS_P1;PMS_P2;Temp;Humidity;BMP_temperature;BMP_pressure;BME280_temperature;BME280_humidity;BME280_pressure;Samples;Min_cycle;Max_cycle;Signal;HPM_P1;HPM_P2
2024/03/05 00:04:16;;;;;;;29.53;23.43;;;12.20;40.30;;;;;;10476658;28;20231;-78
2024/03/05 00:09:21;;;;;;;30.30;22.93;;;12.20;40.20;;;;;;10477629;28;20252;-78
2024/03/05 00:14:25;;;;;;;29.17;21.93;;;12.20;40.30;;;;;;10478465;28;20252;-79
2024/03/05 00:19:28;;;;;;;28.73;21.47;;;12.20;40.30;;;;;;10484007;28;20236;-78
2024/03/05 00:24:32;;;;;;;32.47;24.30;;;12.20;40.30;;;;;;10492876;28;20224;-78
2024/03/05 00:29:36;;;;;;;31.93;23.70;;;12.20;40.40;;;;;;10484964;28;20263;-78
2024/03/05 00:34:39;;;;;;;31.20;23.80;;;12.10;40.60;;;;;;10485264;28;20225;-78
2024/03/05 00:39:42;;;;;;;31.53;23.97;;;12.10;40.50;;;;;;10486538;28;21344;-78
2024/03/05 00:44:47;;;;;;;31.43;23.87;;;12.00;40.60;;;;;;10485686;28;20320;-78
2024/03/05 00:49:50;;;;;;;32.20;23.27;;;12.00;40.90;;;;;;10490537;28;20311;-78
2024/03/05 00:54:54;;;;;;;32.23;24.23;;;11.90;40.80;;;;;;10485760;28;20311;-79
2024/03/05 00:59:59;;;;;;;28.83;21.50;;;11.80;40.80;;;;;;10484769;28;20232;-77
2024/03/05 01:05:05;;;;;;;27.50;22.50;;;11.80;41.10;;;;;;10486611;28;20267;-78
2024/03/05 01:10:09;;;;;;;30.33;22.97;;;11.80;40.80;;;;;;10491837;28;20238;-78
2024/03/05 01:15:14;;;;;;;28.70;22.33;;;11.80;40.90;;;;;;10487416;28;20248;-78
2024/03/05 01:20:18;;;;;;;31.53;23.73;;;11.80;41.10;;;;;;10489695;28;20730;-78
2024/03/05 01:25:21;;;;;;;24.80;19.53;;;11.80;40.90;;;;;;10487849;28;20228;-78
2024/03/05 01:30:27;;;;;;;28.63;22.23;;;11.70;40.80;;;;;;10488649;28;20236;-78
2024/03/05 01:35:31;;;;;;;30.90;22.43;;;11.80;41.50;;;;;;10487348;28;20228;-78
2024/03/05 01:40:35;;;;;;;29.97;22.30;;;11.80;40.90;;;;;;10485164;28;20252;-78
2024/03/05 01:45:39;;;;;;;27.67;21.07;;;11.80;40.80;;;;;;10486134;28;20228;-78
2024/03/05 01:50:44;;;;;;;29.40;22.70;;;11.80;40.90;;;;;;10487446;28;20262;-78
2024/03/05 01:55:49;;;;;;;28.77;22.57;;;11.90;41.00;;;;;;10485495;28;20232;-78
2024/03/05 02:00:57;;;;;;;27.87;21.73;;;11.90;40.80;;;;;;10484573;28;20721;-78
2024/03/05 02:06:02;;;;;;;32.23;22.23;;;11.90;40.90;;;;;;10486816;28;20243;-78
2024/03/05 02:11:07;;;;;;;27.10;21.30;;;11.90;40.80;;;;;;10486429;28;20277;-78
2024/03/05 02:16:12;;;;;;;29.07;21.70;;;11.90;40.60;;;;;;10486879;28;20217;-78
2024/03/05 02:21:21;;;;;;;27.77;21.63;;;11.90;40.90;;;;;;10485577;28;20783;-81
2024/03/05 02:26:28;;;;;;;30.57;21.00;;;11.90;41.10;;;;;;10482535;28;20231;-78
2024/03/05 02:31:31;;;;;;;27.03;21.67;;;11.90;40.60;;;;;;10487702;28;20256;-78
2024/03/05 02:36:36;;;;;;;27.00;21.17;;;11.90;40.80;;;;;;10482260;28;20315;-78
2024/03/05 02:41:40;;;;;;;28.03;21.57;;;11.90;40.90;;;;;;10483641;28;20228;-79
2024/03/05 02:46:43;;;;;;;27.77;21.53;;;11.80;40.70;;;;;;10484309;28;20779;-78
2024/03/05 02:51:48;;;;;;;24.20;19.30;;;11.80;40.90;;;;;;10480045;28;20236;-78
2024/03/05 02:56:52;;;;;;;23.13;17.73;;;11.80;41.10;;;;;;10485226;28;20824;-78
2024/03/05 03:01:55;;;;;;;26.53;20.80;;;11.80;40.90;;;;;;10486683;28;20652;-78
2024/03/05 03:06:59;;;;;;;27.80;21.20;;;11.80;41.60;;;;;;10484557;28;20281;-78
2024/03/05 03:12:03;;;;;;;27.80;20.37;;;11.80;41.10;;;;;;10480730;28;20296;-78
2024/03/05 03:17:06;;;;;;;27.03;20.83;;;11.90;40.90;;;;;;10479007;28;20801;-78
2024/03/05 03:22:13;;;;;;;28.93;21.10;;;11.90;40.80;;;;;;10479047;28;20232;-78
2024/03/05 03:27:16;;;;;;;29.13;21.03;;;11.90;40.80;;;;;;10483245;28;20232;-78
2024/03/05 03:32:20;;;;;;;28.90;21.97;;;11.90;40.50;;;;;;10478920;28;20826;-78
2024/03/05 03:37:25;;;;;;;28.53;22.10;;;11.80;40.50;;;;;;10481947;28;20336;-78
2024/03/05 03:42:29;;;;;;;26.87;20.57;;;11.80;40.80;;;;;;10476677;28;20235;-77
2024/03/05 03:47:32;;;;;;;27.70;20.90;;;11.80;40.80;;;;;;10472942;28;20263;-78
2024/03/05 03:52:40;;;;;;;27.43;21.30;;;11.70;40.70;;;;;;10478423;28;20229;-78
2024/03/05 03:57:45;;;;;;;28.93;20.87;;;11.70;41.40;;;;;;10492850;28;20229;-78
2024/03/05 04:02:49;;;;;;;27.40;20.03;;;11.70;40.80;;;;;;10488000;28;20244;-78
2024/03/05 04:07:53;;;;;;;28.77;21.13;;;11.70;40.80;;;;;;10485890;28;20228;-78
2024/03/05 04:12:57;;;;;;;26.97;21.27;;;11.70;41.00;;;;;;10491820;28;20232;-78
2024/03/05 04:18:00;;;;;;;28.23;21.03;;;11.70;40.90;;;;;;10491252;28;20251;-78
2024/03/05 04:23:05;;;;;;;26.67;20.47;;;11.60;40.70;;;;;;10487185;28;20314;-78
2024/03/05 04:28:12;;;;;;;28.47;21.47;;;11.60;41.30;;;;;;10489465;28;20648;-78
2024/03/05 04:33:19;;;;;;;27.87;21.27;;;11.40;41.20;;;;;;10495351;28;20239;-79
2024/03/05 04:38:26;;;;;;;25.23;19.23;;;11.50;41.30;;;;;;10489856;28;20251;-78
2024/03/05 04:43:29;;;;;;;24.33;19.37;;;11.50;41.30;;;;;;10488609;28;20259;-78
2024/03/05 04:48:32;;;;;;;27.90;20.73;;;11.50;41.30;;;;;;10481173;28;20225;-78
2024/03/05 04:53:38;;;;;;;27.57;21.17;;;11.50;41.30;;;;;;10483904;28;20252;-78
2024/03/05 04:58:41;;;;;;;25.80;20.60;;;11.50;41.30;;;;;;10485913;28;20228;-78
2024/03/05 05:03:44;;;;;;;27.47;21.27;;;11.50;41.30;;;;;;10482359;28;20224;-77
2024/03/05 05:08:50;;;;;;;28.93;21.23;;;11.50;41.30;;;;;;10488062;28;20825;-78
2024/03/05 05:13:53;;;;;;;25.93;20.50;;;11.50;41.30;;;;;;10491991;28;20259;-78
2024/03/05 05:18:56;;;;;;;28.70;21.53;;;11.50;41.30;;;;;;10487566;28;20232;-78
2024/03/05 05:24:01;;;;;;;26.93;20.63;;;11.50;41.30;;;;;;10487072;28;20315;-78
2024/03/05 05:29:04;;;;;;;28.07;20.83;;;11.60;41.30;;;;;;10480735;28;20299;-78
2024/03/05 05:34:08;;;;;;;27.67;21.33;;;11.60;41.30;;;;;;10480791;28;20320;-78
2024/03/05 05:39:12;;;;;;;30.17;21.80;;;11.60;41.30;;;;;;10490355;28;20316;-78
2024/03/05 05:44:15;;;;;;;28.13;20.83;;;11.50;41.30;;;;;;10484540;28;20228;-78
2024/03/05 05:49:20;;;;;;;28.90;21.73;;;11.60;41.30;;;;;;10485527;28;20355;-78
2024/03/05 05:54:26;;;;;;;29.87;22.20;;;11.50;41.30;;;;;;10478017;28;20224;-79
2024/03/05 05:59:29;;;;;;;32.07;22.33;;;11.50;41.30;;;;;;10476382;28;20241;-78
2024/03/05 06:04:33;;;;;;;27.00;20.50;;;11.40;41.20;;;;;;10477829;28;20234;-79
2024/03/05 06:09:40;;;;;;;31.97;24.13;;;11.40;41.20;;;;;;10472766;28;20240;-77
2024/03/05 06:14:43;;;;;;;31.90;25.70;;;11.40;41.30;;;;;;10469405;28;20714;-77
2024/03/05 06:19:49;;;;;;;31.20;24.30;;;11.40;41.20;;;;;;10466195;28;20228;-77
2024/03/05 06:24:53;;;;;;;35.20;26.50;;;11.30;41.10;;;;;;10474041;28;20220;-77
2024/03/05 06:29:56;;;;;;;33.93;24.70;;;11.20;41.60;;;;;;10477752;28;21005;-79
2024/03/05 06:35:00;;;;;;;34.47;25.77;;;11.20;41.30;;;;;;10477869;28;20645;-78
2024/03/05 06:40:09;;;;;;;28.10;21.57;;;11.10;41.30;;;;;;10478401;28;20311;-79
2024/03/05 06:45:14;;;;;;;29.10;21.97;;;11.10;41.60;;;;;;10481339;28;20304;-78
2024/03/05 06:50:23;;;;;;;29.50;22.07;;;11.00;41.20;;;;;;10477962;28;20263;-79
2024/03/05 07:00:49;;;;;;;27.07;21.07;;;10.80;41.70;;;;;;10478058;28;20227;-78
2024/03/05 07:05:52;;;;;;;27.37;21.83;;;10.70;41.60;;;;;;10473291;28;20237;-76
2024/03/05 07:10:57;;;;;;;26.80;21.17;;;10.70;41.90;;;;;;10463985;28;20315;-76
2024/03/05 07:16:02;;;;;;;29.30;22.00;;;10.70;42.20;;;;;;10465930;28;20224;-75
2024/03/05 07:21:07;;;;;;;29.73;21.63;;;10.60;42.10;;;;;;10462666;28;20220;-75
2024/03/05 07:26:12;;;;;;;33.17;23.10;;;10.60;42.20;;;;;;10459715;28;20611;-75
2024/03/05 07:31:16;;;;;;;30.47;22.20;;;10.60;42.70;;;;;;10469421;28;20232;-75
2024/03/05 07:36:21;;;;;;;29.20;22.43;;;10.60;42.70;;;;;;10471706;28;20232;-75
2024/03/05 07:41:27;;;;;;;29.37;20.97;;;10.70;42.90;;;;;;10474068;28;20660;-75
2024/03/05 07:46:36;;;;;;;31.43;23.83;;;10.80;43.30;;;;;;10475265;28;20239;-75
2024/03/05 07:51:40;;;;;;;27.50;21.77;;;10.90;43.30;;;;;;10469132;28;20228;-75
2024/03/05 07:56:48;;;;;;;31.37;23.43;;;11.00;43.40;;;;;;10472476;28;20732;-75
2024/03/05 08:01:52;;;;;;;28.13;21.67;;;11.10;43.50;;;;;;10470205;28;20228;-75
2024/03/05 08:06:55;;;;;;;28.77;20.77;;;11.40;43.20;;;;;;10470689;28;20228;-75
2024/03/05 08:12:02;;;;;;;26.83;20.50;;;11.60;43.00;;;;;;10470304;28;20228;-75
2024/03/05 08:17:08;;;;;;;27.20;21.00;;;11.70;42.70;;;;;;10469294;28;20866;-75
2024/03/05 08:22:12;;;;;;;22.60;18.63;;;11.80;42.30;;;;;;10469408;28;20231;-75
2024/03/05 08:27:17;;;;;;;25.37;20.57;;;11.90;42.40;;;;;;10474093;28;20239;-75
2024/03/05 08:32:20;;;;;;;25.27;20.43;;;12.00;42.40;;;;;;10467741;28;20362;-75
2024/03/05 08:37:23;;;;;;;24.67;20.07;;;12.20;41.90;;;;;;10472507;28;20229;-75
2024/03/05 08:42:28;;;;;;;22.50;18.43;;;12.40;42.00;;;;;;10469950;28;20236;-75
2024/03/05 08:47:33;;;;;;;24.67;19.27;;;12.50;42.10;;;;;;10471743;28;20232;-75
2024/03/05 08:52:36;;;;;;;23.43;17.90;;;12.60;42.20;;;;;;10469948;28;20229;-75
2024/03/05 08:57:41;;;;;;;27.87;18.60;;;12.70;41.90;;;;;;10467487;28;20237;-75
2024/03/05 09:07:58;;;;;;;23.33;18.60;;;12.90;41.00;;;;;;10383142;28;20226;-72
2024/03/05 09:13:04;;;;;;;19.33;16.57;;;12.90;41.00;;;;;;10383294;28;20271;-71
2024/03/05 09:18:09;;;;;;;19.43;17.30;;;13.00;40.90;;;;;;10380903;28;20276;-72
2024/03/05 09:23:12;;;;;;;22.23;17.57;;;13.00;41.10;;;;;;10386781;28;20271;-72
2024/03/05 09:28:17;;;;;;;22.80;17.63;;;13.10;41.50;;;;;;10385665;28;20225;-72
2024/03/05 09:33:20;;;;;;;22.10;17.97;;;13.20;41.70;;;;;;10385675;28;20233;-72
2024/03/05 09:38:23;;;;;;;20.40;16.40;;;13.30;41.80;;;;;;10383798;28;20249;-71
2024/03/05 09:43:29;;;;;;;19.70;15.93;;;13.40;41.20;;;;;;10385850;28;20332;-72
2024/03/05 09:48:34;;;;;;;18.80;15.93;;;13.60;40.70;;;;;;10384110;28;20258;-72
2024/03/05 09:53:38;;;;;;;20.03;15.50;;;13.80;41.10;;;;;;10386390;28;20226;-72
2024/03/05 09:58:43;;;;;;;20.70;15.23;;;14.00;40.60;;;;;;10378287;28;20237;-71
2024/03/05 10:03:49;;;;;;;17.67;15.03;;;14.10;40.30;;;;;;10349394;28;20661;-72
2024/03/05 10:08:54;;;;;;;16.43;12.90;;;14.20;39.10;;;;;;10343427;28;21182;-72
2024/03/05 10:14:05;;;;;;;16.00;14.23;;;14.20;39.40;;;;;;10344828;28;20321;-72
2024/03/05 10:19:13;;;;;;;15.97;13.40;;;14.20;38.40;;;;;;10349838;28;20226;-72
2024/03/05 10:24:29;;;;;;;14.53;12.10;;;14.10;38.70;;;;;;10343814;28;20218;-72
2024/03/05 10:29:38;;;;;;;16.17;12.00;;;14.00;38.40;;;;;;10342323;28;20321;-72
2024/03/05 10:34:45;;;;;;;13.17;11.77;;;14.00;38.20;;;;;;10346013;28;20313;-72
2024/03/05 10:39:49;;;;;;;13.63;11.37;;;14.00;38.50;;;;;;10342728;28;20250;-72
2024/03/05 10:44:57;;;;;;;16.53;13.57;;;14.00;38.80;;;;;;10345173;28;20230;-72
2024/03/05 10:50:01;;;;;;;15.87;13.83;;;13.90;38.60;;;;;;10345252;28;20237;-72
2024/03/05 10:55:11;;;;;;;19.93;14.17;;;13.80;39.00;;;;;;10346567;28;20606;-71
2024/03/05 11:00:17;;;;;;;16.00;13.50;;;13.80;38.90;;;;;;10344218;28;20222;-72
2024/03/05 11:05:20;;;;;;;16.87;14.47;;;13.80;39.30;;;;;;10338892;28;20640;-72
2024/03/05 11:10:26;;;;;;;16.67;13.57;;;13.90;39.30;;;;;;10342338;28;20241;-72
2024/03/05 11:15:30;;;;;;;16.77;13.73;;;13.90;38.80;;;;;;10344652;28;20230;-72
2024/03/05 11:20:43;;;;;;;15.40;12.90;;;13.90;38.70;;;;;;10345193;28;20253;-72
2024/03/05 11:25:48;;;;;;;15.10;13.00;;;13.80;38.20;;;;;;10345275;28;20226;-72
2024/03/05 11:31:10;;;;;;;14.30;12.80;;;13.90;39.10;;;;;;10341958;28;20235;-72
2024/03/05 11:36:21;;;;;;;18.97;14.10;;;14.00;38.50;;;;;;10341309;28;20428;-72
2024/03/05 11:41:25;;;;;;;17.60;13.40;;;14.00;38.60;;;;;;10342190;28;20317;-72
2024/03/05 11:46:44;;;;;;;16.47;13.83;;;14.00;39.20;;;;;;10345444;28;20325;-72
2024/03/05 11:51:49;;;;;;;15.73;13.47;;;14.10;38.40;;;;;;10345274;28;20226;-72
2024/03/05 11:56:57;;;;;;;16.80;12.97;;;14.10;39.20;;;;;;10346572;28;20245;-72
2024/03/05 12:02:02;;;;;;;14.43;12.60;;;14.10;38.20;;;;;;10346530;28;20234;-72
2024/03/05 12:07:07;;;;;;;14.80;12.70;;;14.20;38.40;;;;;;10367413;28;20226;-72
2024/03/05 12:12:12;;;;;;;15.47;13.10;;;14.20;38.70;;;;;;10366902;28;20231;-72
2024/03/05 12:17:19;;;;;;;15.77;12.80;;;14.20;38.20;;;;;;10350236;28;20247;-72
2024/03/05 12:22:23;;;;;;;14.93;12.93;;;14.30;38.20;;;;;;10363609;28;20241;-72
2024/03/05 12:27:27;;;;;;;15.03;13.37;;;14.40;38.30;;;;;;10387366;28;20234;-72
2024/03/05 12:32:31;;;;;;;16.53;13.70;;;14.30;38.30;;;;;;10384997;28;20220;-72
2024/03/05 12:37:35;;;;;;;14.97;12.47;;;14.20;38.00;;;;;;10385264;28;20729;-72
2024/03/05 12:42:39;;;;;;;17.33;14.23;;;14.20;38.10;;;;;;10390983;28;20231;-72
2024/03/05 12:47:45;;;;;;;16.33;13.47;;;14.20;38.30;;;;;;10384849;28;20835;-73
2024/03/05 12:52:49;;;;;;;16.97;14.40;;;14.20;38.00;;;;;;10374282;28;20968;-73
2024/03/05 12:57:52;;;;;;;16.67;13.00;;;14.10;38.10;;;;;;10381102;28;20226;-72
2024/03/05 13:02:57;;;;;;;18.60;14.30;;;14.10;38.40;;;;;;10378592;28;20791;-72
2024/03/05 13:08:01;;;;;;;16.97;14.40;;;14.10;37.70;;;;;;10384209;28;20608;-72
2024/03/05 13:13:04;;;;;;;16.13;13.83;;;14.00;38.10;;;;;;10381745;28;20226;-72
2024/03/05 13:18:09;;;;;;;18.10;14.43;;;14.00;38.10;;;;;;10378620;28;20656;-72
2024/03/05 13:23:12;;;;;;;17.97;14.57;;;14.00;37.90;;;;;;10375625;28;20226;-72
2024/03/05 13:28:16;;;;;;;16.50;13.23;;;14.00;38.00;;;;;;10371559;28;20222;-72
2024/03/05 13:33:23;;;;;;;18.20;13.93;;;13.90;37.90;;;;;;10374976;28;20237;-72
2024/03/05 13:38:27;;;;;;;17.67;14.13;;;13.90;37.70;;;;;;10375447;28;20253;-72
2024/03/05 13:43:30;;;;;;;18.40;14.40;;;13.80;38.10;;;;;;10377422;28;20227;-72
2024/03/05 13:48:35;;;;;;;17.57;14.23;;;13.80;38.00;;;;;;10378932;28;20233;-72
2024/03/05 13:53:38;;;;;;;18.37;14.67;;;13.90;38.10;;;;;;10373256;28;20229;-72
2024/03/05 13:58:41;;;;;;;18.53;14.67;;;13.90;38.10;;;;;;10375263;28;20238;-72
2024/03/05 14:03:46;;;;;;;18.00;14.27;;;14.00;38.00;;;;;;10372779;28;20233;-72
2024/03/05 14:08:50;;;;;;;18.47;15.63;;;14.00;37.80;;;;;;10376567;28;20636;-72
2024/03/05 14:13:54;;;;;;;17.27;14.80;;;14.00;38.00;;;;;;10374517;28;20673;-72
2024/03/05 14:18:59;;;;;;;19.00;15.30;;;14.00;38.10;;;;;;10374774;28;20245;-72
2024/03/05 14:24:03;;;;;;;18.83;15.00;;;14.00;38.00;;;;;;10374778;28;20222;-72
2024/03/05 14:29:07;;;;;;;16.47;13.73;;;14.00;37.90;;;;;;10375523;28;20238;-71
2024/03/05 14:34:12;;;;;;;18.67;14.03;;;14.00;37.80;;;;;;10373667;28;20253;-72
2024/03/05 14:39:16;;;;;;;16.97;14.27;;;14.00;37.60;;;;;;10373799;28;20315;-72
2024/03/05 14:44:19;;;;;;;19.10;14.60;;;14.00;37.90;;;;;;10375540;28;20700;-72
2024/03/05 14:49:24;;;;;;;15.67;13.97;;;14.00;38.10;;;;;;10371885;28;20990;-72
2024/03/05 14:54:28;;;;;;;17.33;14.97;;;14.00;38.00;;;;;;10370853;28;20221;-72
2024/03/05 14:59:31;;;;;;;18.13;15.13;;;14.10;38.00;;;;;;10373773;28;20229;-72
2024/03/05 15:04:36;;;;;;;16.87;14.13;;;14.10;37.90;;;;;;10371793;28;20315;-72
2024/03/05 15:09:39;;;;;;;18.73;15.37;;;14.10;37.70;;;;;;10371883;28;20222;-72
2024/03/05 15:14:42;;;;;;;18.80;15.60;;;14.10;38.10;;;;;;10373754;28;20225;-72
2024/03/05 15:19:49;;;;;;;20.10;16.53;;;14.10;38.00;;;;;;10368949;28;20647;-72
2024/03/05 15:24:52;;;;;;;25.57;21.03;;;14.10;37.70;;;;;;10370966;28;20320;-72
2024/03/05 15:29:55;;;;;;;24.97;17.80;;;14.10;37.90;;;;;;10374493;28;20234;-72
2024/03/05 15:35:00;;;;;;;18.30;15.93;;;14.00;37.70;;;;;;10371061;28;21008;-72
2024/03/05 15:40:14;;;;;;;18.77;16.07;;;13.90;37.70;;;;;;10368518;28;20767;-72
2024/03/05 15:45:19;;;;;;;20.33;17.37;;;13.80;38.20;;;;;;10369487;28;20845;-72
2024/03/05 15:50:25;;;;;;;27.27;21.60;;;13.80;38.20;;;;;;10374993;28;20241;-72
2024/03/05 15:55:29;;;;;;;29.73;23.43;;;13.80;38.50;;;;;;10377967;28;20364;-72
2024/03/05 16:00:35;;;;;;;21.30;17.10;;;13.80;38.50;;;;;;10377888;28;20318;-72
2024/03/05 16:05:42;;;;;;;21.07;17.00;;;13.80;38.50;;;;;;10377761;28;20338;-72
2024/03/05 16:11:02;;;;;;;21.77;16.87;;;13.80;38.60;;;;;;10386786;28;20563;-71
2024/03/05 16:16:07;;;;;;;19.40;16.27;;;13.70;38.30;;;;;;10377440;28;20597;-72
2024/03/05 16:21:12;;;;;;;21.27;15.83;;;13.70;38.40;;;;;;10379369;28;20381;-72
2024/03/05 16:26:16;;;;;;;17.17;14.23;;;13.70;38.80;;;;;;10382671;28;20230;-73
2024/03/05 16:31:21;;;;;;;20.63;16.17;;;13.70;39.00;;;;;;10372875;28;20251;-72
2024/03/05 16:36:26;;;;;;;18.80;15.87;;;13.70;38.80;;;;;;10378684;28;20233;-72
2024/03/05 16:41:29;;;;;;;20.27;16.50;;;13.70;38.90;;;;;;10341203;28;20230;-72
2024/03/05 16:46:33;;;;;;;17.63;14.67;;;13.70;38.70;;;;;;10353261;28;20322;-72
2024/03/05 16:51:39;;;;;;;18.43;14.97;;;13.60;38.70;;;;;;10339553;28;20309;-70
2024/03/05 16:56:43;;;;;;;20.47;16.03;;;13.40;39.00;;;;;;10336181;28;20245;-70
2024/03/05 17:01:47;;;;;;;19.23;15.77;;;13.40;39.00;;;;;;10336020;28;20308;-71
2024/03/05 17:06:54;;;;;;;18.40;15.07;;;13.30;39.10;;;;;;10377395;28;20229;-70
2024/03/05 17:12:00;;;;;;;17.93;14.77;;;13.20;39.60;;;;;;10375480;28;20785;-70
2024/03/05 17:17:04;;;;;;;15.90;13.13;;;13.10;39.80;;;;;;10374458;28;21001;-70
2024/03/05 17:22:09;;;;;;;16.77;12.30;;;13.10;39.60;;;;;;10369945;28;20627;-70
2024/03/05 17:27:13;;;;;;;13.90;12.07;;;13.00;39.80;;;;;;10375832;28;20229;-70
2024/03/05 17:32:16;;;;;;;12.00;9.93;;;12.80;39.80;;;;;;10378412;28;20231;-70
2024/03/05 17:37:21;;;;;;;12.53;10.60;;;12.90;40.00;;;;;;10381463;28;20700;-70
2024/03/05 17:42:24;;;;;;;11.43;10.10;;;12.80;40.10;;;;;;10384668;28;20237;-70
2024/03/05 17:47:27;;;;;;;11.23;9.23;;;12.90;40.10;;;;;;10383123;28;20234;-70
2024/03/05 17:52:33;;;;;;;10.40;8.60;;;12.90;39.90;;;;;;10380697;28;20229;-70
2024/03/05 17:57:39;;;;;;;10.50;9.00;;;12.90;40.00;;;;;;10384465;28;20715;-70
2024/03/05 18:02:43;;;;;;;9.60;7.83;;;12.80;39.80;;;;;;10387637;28;20258;-69
2024/03/05 18:07:48;;;;;;;10.23;8.70;;;12.80;39.80;;;;;;10383306;28;20221;-70
2024/03/05 18:12:51;;;;;;;9.10;8.20;;;12.80;40.00;;;;;;10382841;28;20226;-70
2024/03/05 18:17:57;;;;;;;7.13;6.43;;;12.80;39.70;;;;;;10383015;28;20325;-70
2024/03/05 18:23:02;;;;;;;7.57;6.73;;;12.70;40.50;;;;;;10380686;28;20240;-70
2024/03/05 18:28:06;;;;;;;6.47;5.87;;;12.70;40.10;;;;;;10380020;28;20225;-70
2024/03/05 18:33:10;;;;;;;6.13;5.53;;;12.70;40.10;;;;;;10376615;28;20228;-70
2024/03/05 18:38:18;;;;;;;6.63;5.60;;;12.60;40.00;;;;;;10375192;28;20232;-70
2024/03/05 18:43:32;;;;;;;6.43;5.57;;;12.60;40.10;;;;;;10380205;28;20233;-70
2024/03/05 18:48:35;;;;;;;5.73;4.97;;;12.60;39.90;;;;;;10376951;28;20261;-70
2024/03/05 18:53:40;;;;;;;5.17;4.73;;;12.60;39.90;;;;;;10376537;28;20707;-70
2024/03/05 18:58:51;;;;;;;5.10;4.60;;;12.60;40.10;;;;;;10378626;28;20233;-70
2024/03/05 19:03:56;;;;;;;6.17;5.57;;;12.60;40.00;;;;;;10377534;28;20716;-70
2024/03/05 19:09:09;;;;;;;5.77;4.60;;;12.50;40.00;;;;;;10376776;28;20245;-70
2024/03/05 19:14:12;;;;;;;6.20;5.70;;;12.60;40.20;;;;;;10374571;28;20224;-70
2024/03/05 19:19:16;;;;;;;5.33;4.90;;;12.50;40.00;;;;;;10382660;28;20226;-70
2024/03/05 19:24:20;;;;;;;5.03;4.53;;;12.50;40.00;;;;;;10379417;28;20264;-70
2024/03/05 19:29:26;;;;;;;5.10;4.60;;;12.50;40.20;;;;;;10380171;28;20311;-70
2024/03/05 19:34:29;;;;;;;5.00;4.50;;;12.40;40.00;;;;;;10382220;28;20232;-70
2024/03/05 19:39:35;;;;;;;4.93;4.53;;;12.40;40.20;;;;;;10363031;28;20257;-70
2024/03/05 19:44:39;;;;;;;5.30;4.73;;;12.40;40.30;;;;;;10337961;28;20258;-70
2024/03/05 19:49:43;;;;;;;5.30;4.80;;;12.40;40.20;;;;;;10343140;28;20234;-70
2024/03/05 19:54:48;;;;;;;4.63;4.27;;;12.40;40.00;;;;;;10342204;28;20265;-70
2024/03/05 19:59:52;;;;;;;5.30;4.80;;;12.40;40.30;;;;;;10338386;28;20234;-70
2024/03/05 20:04:55;;;;;;;5.17;4.67;;;12.30;40.00;;;;;;10342715;28;20616;-70
2024/03/05 20:10:01;;;;;;;5.40;4.90;;;12.30;40.10;;;;;;10341246;28;20237;-71
2024/03/05 20:15:08;;;;;;;6.00;5.50;;;12.30;40.40;;;;;;10364223;28;20230;-70
2024/03/05 20:20:15;;;;;;;6.07;5.57;;;12.20;40.10;;;;;;10352365;28;20253;-70
2024/03/05 20:25:24;;;;;;;6.10;5.57;;;12.20;40.20;;;;;;10342488;28;20273;-70
2024/03/05 20:30:29;;;;;;;6.60;6.00;;;12.20;40.50;;;;;;10340660;28;20234;-70
2024/03/05 20:35:33;;;;;;;5.90;5.40;;;12.20;40.30;;;;;;10342803;28;20299;-70
2024/03/05 20:40:40;;;;;;;7.23;6.53;;;12.10;40.30;;;;;;10347569;28;20277;-70
2024/03/05 20:45:44;;;;;;;7.47;6.80;;;12.10;40.50;;;;;;10356668;28;20313;-70
2024/03/05 20:50:50;;;;;;;7.33;6.73;;;12.10;40.40;;;;;;10370041;28;20245;-70
2024/03/05 20:55:55;;;;;;;7.30;6.60;;;12.00;40.30;;;;;;10385853;28;20809;-70
2024/03/05 21:00:58;;;;;;;7.70;7.00;;;11.90;40.80;;;;;;10345017;28;20897;-70
2024/03/05 21:06:02;;;;;;;7.63;7.00;;;11.80;40.70;;;;;;10371287;28;20229;-70
2024/03/05 21:11:07;;;;;;;8.60;7.90;;;11.70;40.60;;;;;;10383030;28;21009;-70
2024/03/05 21:16:12;;;;;;;8.87;7.97;;;11.70;41.20;;;;;;10382205;28;20849;-70
2024/03/05 21:21:16;;;;;;;8.57;7.70;;;11.60;40.90;;;;;;10382626;28;20340;-70
2024/03/05 21:26:20;;;;;;;8.33;7.57;;;11.50;41.20;;;;;;10382936;28;20237;-70
2024/03/05 21:31:46;;;;;;;8.27;7.47;;;11.50;41.30;;;;;;10384806;28;20218;-70
2024/03/05 21:36:50;;;;;;;8.10;7.40;;;11.50;41.30;;;;;;10386567;28;20337;-70
2024/03/05 21:41:56;;;;;;;8.60;7.80;;;11.50;41.30;;;;;;10382252;28;20232;-70
2024/03/05 21:46:59;;;;;;;9.60;8.70;;;11.50;41.30;;;;;;10376599;28;20233;-70
2024/03/05 21:52:02;;;;;;;9.33;8.53;;;11.50;41.30;;;;;;10378721;28;20645;-70
2024/03/05 21:57:08;;;;;;;10.13;9.10;;;11.50;41.30;;;;;;10377028;28;20233;-70
2024/03/05 22:02:11;;;;;;;14.10;12.73;;;11.50;41.30;;;;;;10380295;28;20610;-70
2024/03/05 22:07:15;;;;;;;11.83;10.63;;;11.50;41.30;;;;;;10379173;28;20246;-70
2024/03/05 22:12:19;;;;;;;16.83;13.80;;;11.60;41.30;;;;;;10374083;28;20713;-70
2024/03/05 22:17:22;;;;;;;11.80;10.67;;;11.60;41.30;;;;;;10374657;28;20365;-70
2024/03/05 22:22:27;;;;;;;11.33;10.23;;;11.60;41.30;;;;;;10378503;28;20634;-70
2024/03/05 22:27:31;;;;;;;10.70;9.70;;;11.50;41.30;;;;;;10379083;28;20654;-70
2024/03/05 22:32:34;;;;;;;10.90;9.97;;;11.50;41.30;;;;;;10379674;28;21200;-70
2024/03/05 22:37:39;;;;;;;11.50;10.43;;;11.50;41.30;;;;;;10377964;28;20230;-70
2024/03/05 22:42:45;;;;;;;11.10;10.10;;;11.40;41.20;;;;;;10380029;28;20253;-70
2024/03/05 22:47:49;;;;;;;10.67;9.70;;;11.40;41.20;;;;;;10379105;28;20373;-70
2024/03/05 22:52:52;;;;;;;11.40;10.40;;;11.40;41.20;;;;;;10378377;28;20642;-70
2024/03/05 22:57:57;;;;;;;10.83;9.83;;;11.40;41.20;;;;;;10383035;28;20232;-70
2024/03/05 23:03:00;;;;;;;10.53;9.57;;;11.40;41.40;;;;;;10383150;28;20734;-70
2024/03/05 23:08:03;;;;;;;12.13;10.83;;;11.50;41.30;;;;;;10379792;28;20221;-70
2024/03/05 23:13:08;;;;;;;11.23;10.23;;;11.50;41.30;;;;;;10384879;28;20774;-70
2024/03/05 23:18:11;;;;;;;11.60;10.50;;;11.40;41.20;;;;;;10382579;28;20241;-70
2024/03/05 23:23:14;;;;;;;11.67;10.57;;;11.40;41.20;;;;;;10382900;28;20230;-70
2024/03/05 23:28:19;;;;;;;12.90;11.60;;;11.30;41.50;;;;;;10380921;28;20364;-70
2024/03/05 23:33:22;;;;;;;12.00;10.90;;;11.20;42.10;;;;;;10381017;28;20814;-70
2024/03/05 23:38:25;;;;;;;12.57;11.47;;;11.20;41.80;;;;;;10385167;28;20271;-70
2024/03/05 23:43:30;;;;;;;11.53;10.53;;;11.10;41.80;;;;;;10383690;28;20230;-70
2024/03/05 23:48:34;;;;;;;13.50;11.53;;;11.10;42.40;;;;;;10382047;28;20238;-70
2024/03/05 23:53:37;;;;;;;11.40;10.40;;;11.00;42.30;;;;;;10378523;28;20229;-70
2024/03/05 23:58:42;;;;;;;11.37;10.30;;;10.90;42.30;;;;;;10381358;28;20230;-70
